sensor_id;sensor_type;location;lat;lon;timestamp;P1;P2;P0
57289;PMS5003;43523;53.022;-1.178;2023-05-31T00:00:35;28;19;
57289;PMS5003;43523;53.022;-1.178;2023-05-31T00:01:37;19;17;
57289;PMS5003;43523;53.022;-1.178;2023-05-31T00:02:44;28;23;
57289;PMS5003;43523;53.022;-1.178;2023-05-31T00:03:46;22;21;
57289;PMS5003;43523;53.022;-1.178;2023-05-31T00:04:49;29;23;
57289;PMS5003;43523;53.022;-1.178;2023-05-31T00:05:51;27;23;
57289;PMS5003;43523;53.022;-1.178;2023-05-31T00:06:53;29;23;
57289;PMS5003;43523;53.022;-1.178;2023-05-31T00:07:56;23;21;
57289;PMS5003;43523;53.022;-1.178;2023-05-31T00:08:57;30;29;
57289;PMS5003;43523;53.022;-1.178;2023-05-31T00:10:00;25;22;
57289;PMS5003;43523;53.022;-1.178;2023-05-31T00:11:02;26;21;
57289;PMS5003;43523;53.022;-1.178;2023-05-31T00:12:04;22;22;
57289;PMS5003;43523;53.022;-1.178;2023-05-31T00:13:08;21;17;
57289;PMS5003;43523;53.022;-1.178;2023-05-31T00:14:10;19;19;
57289;PMS5003;43523;53.022;-1.178;2023-05-31T00:15:13;23;18;
57289;PMS5003;43523;53.022;-1.178;2023-05-31T00:16:15;21;18;
57289;PMS5003;43523;53.022;-1.178;2023-05-31T00:17:17;20;17;
57289;PMS5003;43523;53.022;-1.178;2023-05-31T00:18:20;20;18;
57289;PMS5003;43523;53.022;-1.178;2023-05-31T00:19:23;18;16;
57289;PMS5003;43523;53.022;-1.178;2023-05-31T00:20:26;17;15;
57289;PMS5003;43523;53.022;-1.178;2023-05-31T00:21:28;15;14;
57289;PMS5003;43523;53.022;-1.178;2023-05-31T00:22:30;21;16;
57289;PMS5003;43523;53.022;-1.178;2023-05-31T00:23:33;21;17;
57289;PMS5003;43523;53.022;-1.178;2023-05-31T00:24:35;16;13;
57289;PMS5003;43523;53.022;-1.178;2023-05-31T00:25:38;19;16;
57289;PMS5003;43523;53.022;-1.178;2023-05-31T00:26:40;20;17;
57289;PMS5003;43523;53.022;-1.178;2023-05-31T00:27:43;18;17;
57289;PMS5003;43523;53.022;-1.178;2023-05-31T00:28:45;15;13;
57289;PMS5003;43523;53.022;-1.178;2023-05-31T00:29:48;16;16;
57289;PMS5003;43523;53.022;-1.178;2023-05-31T00:30:50;17;15;
57289;PMS5003;43523;53.022;-1.178;2023-05-31T00:31:52;21;15;
57289;PMS5003;43523;53.022;-1.178;2023-05-31T00:32:54;14;11;
57289;PMS5003;43523;53.022;-1.178;2023-05-31T00:33:56;23;17;
57289;PMS5003;43523;53.022;-1.178;2023-05-31T00:34:58;16;14;
57289;PMS5003;43523;53.022;-1.178;2023-05-31T00:36:01;19;17;
57289;PMS5003;43523;53.022;-1.178;2023-05-31T00:37:04;19;17;
57289;PMS5003;43523;53.022;-1.178;2023-05-31T00:38:07;21;19;
57289;PMS5003;43523;53.022;-1.178;2023-05-31T00:39:09;17;14;
57289;PMS5003;43523;53.022;-1.178;2023-05-31T00:40:12;24;18;
57289;PMS5003;43523;53.022;-1.178;2023-05-31T00:41:14;16;15;
57289;PMS5003;43523;53.022;-1.178;2023-05-31T00:42:17;20;16;
57289;PMS5003;43523;53.022;-1.178;2023-05-31T00:43:19;20;18;
57289;PMS5003;43523;53.022;-1.178;2023-05-31T00:44:21;18;15;
57289;PMS5003;43523;53.022;-1.178;2023-05-31T00:45:24;14;14;
57289;PMS5003;43523;53.022;-1.178;2023-05-31T00:46:32;17;14;
57289;PMS5003;43523;53.022;-1.178;2023-05-31T00:47:35;19;17;
57289;PMS5003;43523;53.022;-1.178;2023-05-31T00:48:38;18;15;
57289;PMS5003;43523;53.022;-1.178;2023-05-31T00:49:40;12;11;
57289;PMS5003;43523;53.022;-1.178;2023-05-31T00:50:43;18;16;
57289;PMS5003;43523;53.022;-1.178;2023-05-31T00:51:45;19;17;
57289;PMS5003;43523;53.022;-1.178;2023-05-31T00:52:48;18;16;
57289;PMS5003;43523;53.022;-1.178;2023-05-31T00:53:53;13;10;
57289;PMS5003;43523;53.022;-1.178;2023-05-31T00:54:56;16;13;
57289;PMS5003;43523;53.022;-1.178;2023-05-31T00:55:59;21;16;
57289;PMS5003;43523;53.022;-1.178;2023-05-31T00:57:02;17;17;
57289;PMS5003;43523;53.022;-1.178;2023-05-31T00:58:06;16;14;
57289;PMS5003;43523;53.022;-1.178;2023-05-31T00:59:09;15;15;
57289;PMS5003;43523;53.022;-1.178;2023-05-31T01:00:11;19;16;
57289;PMS5003;43523;53.022;-1.178;2023-05-31T01:01:15;15;15;
57289;PMS5003;43523;53.022;-1.178;2023-05-31T01:02:18;16;13;
57289;PMS5003;43523;53.022;-1.178;2023-05-31T01:03:20;15;13;
57289;PMS5003;43523;53.022;-1.178;2023-05-31T01:04:23;22;16;
57289;PMS5003;43523;53.022;-1.178;2023-05-31T01:05:26;19;17;
57289;PMS5003;43523;53.022;-1.178;2023-05-31T01:06:28;19;15;
57289;PMS5003;43523;53.022;-1.178;2023-05-31T01:07:30;16;13;
57289;PMS5003;43523;53.022;-1.178;2023-05-31T01:08:32;19;15;
57289;PMS5003;43523;53.022;-1.178;2023-05-31T01:09:36;14;11;
57289;PMS5003;43523;53.022;-1.178;2023-05-31T01:10:39;15;10;
57289;PMS5003;43523;53.022;-1.178;2023-05-31T01:11:46;9;9;
57289;PMS5003;43523;53.022;-1.178;2023-05-31T01:13:01;15;13;
57289;PMS5003;43523;53.022;-1.178;2023-05-31T01:14:12;15;12;
57289;PMS5003;43523;53.022;-1.178;2023-05-31T01:15:22;17;14;
57289;PMS5003;43523;53.022;-1.178;2023-05-31T01:16:28;10;9;
57289;PMS5003;43523;53.022;-1.178;2023-05-31T01:17:36;19;10;
57289;PMS5003;43523;53.022;-1.178;2023-05-31T01:18:45;17;12;
57289;PMS5003;43523;53.022;-1.178;2023-05-31T01:19:52;12;8;
57289;PMS5003;43523;53.022;-1.178;2023-05-31T01:20:54;12;12;
57289;PMS5003;43523;53.022;-1.178;2023-05-31T01:22:01;19;14;
57289;PMS5003;43523;53.022;-1.178;2023-05-31T01:23:33;18;10;
57289;PMS5003;43523;53.022;-1.178;2023-05-31T01:24:52;15;10;
57289;PMS5003;43523;53.022;-1.178;2023-05-31T01:26:28;16;14;
57289;PMS5003;43523;53.022;-1.178;2023-05-31T01:27:34;7;6;
57289;PMS5003;43523;53.022;-1.178;2023-05-31T01:28:40;12;9;
57289;PMS5003;43523;53.022;-1.178;2023-05-31T01:29:42;7;7;
57289;PMS5003;43523;53.022;-1.178;2023-05-31T01:30:46;5;5;
57289;PMS5003;43523;53.022;-1.178;2023-05-31T01:31:50;7;5;
57289;PMS5003;43523;53.022;-1.178;2023-05-31T01:32:54;8;8;
57289;PMS5003;43523;53.022;-1.178;2023-05-31T01:33:58;6;6;
57289;PMS5003;43523;53.022;-1.178;2023-05-31T01:35:02;7;6;
57289;PMS5003;43523;53.022;-1.178;2023-05-31T01:36:06;4;4;
57289;PMS5003;43523;53.022;-1.178;2023-05-31T01:37:08;12;9;
57289;PMS5003;43523;53.022;-1.178;2023-05-31T01:38:11;4;4;
57289;PMS5003;43523;53.022;-1.178;2023-05-31T01:39:13;5;5;
57289;PMS5003;43523;53.022;-1.178;2023-05-31T01:40:16;6;5;
57289;PMS5003;43523;53.022;-1.178;2023-05-31T01:41:19;6;6;
57289;PMS5003;43523;53.022;-1.178;2023-05-31T01:42:23;7;7;
57289;PMS5003;43523;53.022;-1.178;2023-05-31T01:43:25;6;5;
57289;PMS5003;43523;53.022;-1.178;2023-05-31T01:44:29;6;4;
57289;PMS5003;43523;53.022;-1.178;2023-05-31T01:45:34;7;6;
57289;PMS5003;43523;53.022;-1.178;2023-05-31T01:46:37;7;6;
57289;PMS5003;43523;53.022;-1.178;2023-05-31T01:47:40;6;3;
57289;PMS5003;43523;53.022;-1.178;2023-05-31T01:48:44;6;6;
57289;PMS5003;43523;53.022;-1.178;2023-05-31T01:49:48;7;5;
57289;PMS5003;43523;53.022;-1.178;2023-05-31T01:50:51;6;4;
57289;PMS5003;43523;53.022;-1.178;2023-05-31T01:51:54;6;4;
57289;PMS5003;43523;53.022;-1.178;2023-05-31T01:52:58;4;4;
57289;PMS5003;43523;53.022;-1.178;2023-05-31T01:54:00;2;2;
57289;PMS5003;43523;53.022;-1.178;2023-05-31T01:55:03;4;4;
57289;PMS5003;43523;53.022;-1.178;2023-05-31T01:56:06;9;4;
57289;PMS5003;43523;53.022;-1.178;2023-05-31T01:57:10;5;4;
57289;PMS5003;43523;53.022;-1.178;2023-05-31T01:58:15;5;5;
57289;PMS5003;43523;53.022;-1.178;2023-05-31T01:59:19;4;4;
57289;PMS5003;43523;53.022;-1.178;2023-05-31T02:00:23;6;5;
57289;PMS5003;43523;53.022;-1.178;2023-05-31T02:01:26;5;4;
57289;PMS5003;43523;53.022;-1.178;2023-05-31T02:02:28;5;4;
57289;PMS5003;43523;53.022;-1.178;2023-05-31T02:03:31;4;4;
57289;PMS5003;43523;53.022;-1.178;2023-05-31T02:04:34;4;4;
57289;PMS5003;43523;53.022;-1.178;2023-05-31T02:05:37;5;4;
57289;PMS5003;43523;53.022;-1.178;2023-05-31T02:06:54;5;3;
57289;PMS5003;43523;53.022;-1.178;2023-05-31T02:07:56;7;7;
57289;PMS5003;43523;53.022;-1.178;2023-05-31T02:08:59;7;5;
57289;PMS5003;43523;53.022;-1.178;2023-05-31T02:10:01;8;6;
57289;PMS5003;43523;53.022;-1.178;2023-05-31T02:11:04;5;5;
57289;PMS5003;43523;53.022;-1.178;2023-05-31T02:12:07;11;7;
57289;PMS5003;43523;53.022;-1.178;2023-05-31T02:13:09;8;6;
57289;PMS5003;43523;53.022;-1.178;2023-05-31T02:14:12;7;5;
57289;PMS5003;43523;53.022;-1.178;2023-05-31T02:15:14;6;6;
57289;PMS5003;43523;53.022;-1.178;2023-05-31T02:16:17;7;6;
57289;PMS5003;43523;53.022;-1.178;2023-05-31T02:17:19;8;8;
57289;PMS5003;43523;53.022;-1.178;2023-05-31T02:18:21;10;7;
57289;PMS5003;43523;53.022;-1.178;2023-05-31T02:19:24;10;7;
57289;PMS5003;43523;53.022;-1.178;2023-05-31T02:20:26;15;15;
57289;PMS5003;43523;53.022;-1.178;2023-05-31T02:21:28;9;8;
57289;PMS5003;43523;53.022;-1.178;2023-05-31T02:22:33;12;12;
57289;PMS5003;43523;53.022;-1.178;2023-05-31T02:23:35;9;8;
57289;PMS5003;43523;53.022;-1.178;2023-05-31T02:24:38;8;7;
57289;PMS5003;43523;53.022;-1.178;2023-05-31T02:25:44;12;10;
57289;PMS5003;43523;53.022;-1.178;2023-05-31T02:26:46;8;7;
57289;PMS5003;43523;53.022;-1.178;2023-05-31T02:27:49;12;8;
57289;PMS5003;43523;53.022;-1.178;2023-05-31T02:28:51;14;10;
57289;PMS5003;43523;53.022;-1.178;2023-05-31T02:29:53;8;8;
57289;PMS5003;43523;53.022;-1.178;2023-05-31T02:30:56;13;9;
57289;PMS5003;43523;53.022;-1.178;2023-05-31T02:31:59;11;8;
57289;PMS5003;43523;53.022;-1.178;2023-05-31T02:33:01;18;10;
57289;PMS5003;43523;53.022;-1.178;2023-05-31T02:34:04;11;9;
57289;PMS5003;43523;53.022;-1.178;2023-05-31T02:35:08;6;6;
57289;PMS5003;43523;53.022;-1.178;2023-05-31T02:36:11;15;13;
57289;PMS5003;43523;53.022;-1.178;2023-05-31T02:37:13;8;7;
57289;PMS5003;43523;53.022;-1.178;2023-05-31T02:38:16;12;7;
57289;PMS5003;43523;53.022;-1.178;2023-05-31T02:39:20;11;11;
57289;PMS5003;43523;53.022;-1.178;2023-05-31T02:40:22;12;9;
57289;PMS5003;43523;53.022;-1.178;2023-05-31T02:41:25;12;10;
57289;PMS5003;43523;53.022;-1.178;2023-05-31T02:42:27;11;8;
57289;PMS5003;43523;53.022;-1.178;2023-05-31T02:43:29;12;8;
57289;PMS5003;43523;53.022;-1.178;2023-05-31T02:44:32;10;8;
57289;PMS5003;43523;53.022;-1.178;2023-05-31T02:45:34;19;10;
57289;PMS5003;43523;53.022;-1.178;2023-05-31T02:46:36;11;11;
57289;PMS5003;43523;53.022;-1.178;2023-05-31T02:47:39;11;8;
57289;PMS5003;43523;53.022;-1.178;2023-05-31T02:48:41;11;10;
57289;PMS5003;43523;53.022;-1.178;2023-05-31T02:49:44;9;8;
57289;PMS5003;43523;53.022;-1.178;2023-05-31T02:50:46;10;8;
57289;PMS5003;43523;53.022;-1.178;2023-05-31T02:51:49;12;10;
57289;PMS5003;43523;53.022;-1.178;2023-05-31T02:52:52;6;6;
57289;PMS5003;43523;53.022;-1.178;2023-05-31T02:53:54;11;8;
57289;PMS5003;43523;53.022;-1.178;2023-05-31T02:54:56;15;11;
57289;PMS5003;43523;53.022;-1.178;2023-05-31T02:55:59;8;7;
57289;PMS5003;43523;53.022;-1.178;2023-05-31T02:57:01;11;8;
57289;PMS5003;43523;53.022;-1.178;2023-05-31T02:58:04;7;7;
57289;PMS5003;43523;53.022;-1.178;2023-05-31T02:59:06;9;9;
57289;PMS5003;43523;53.022;-1.178;2023-05-31T03:00:09;10;8;
57289;PMS5003;43523;53.022;-1.178;2023-05-31T03:01:12;10;7;
57289;PMS5003;43523;53.022;-1.178;2023-05-31T03:02:14;7;7;
57289;PMS5003;43523;53.022;-1.178;2023-05-31T03:03:17;8;8;
57289;PMS5003;43523;53.022;-1.178;2023-05-31T03:04:19;8;8;
57289;PMS5003;43523;53.022;-1.178;2023-05-31T03:05:22;9;7;
57289;PMS5003;43523;53.022;-1.178;2023-05-31T03:06:24;10;9;
57289;PMS5003;43523;53.022;-1.178;2023-05-31T03:07:27;10;9;
57289;PMS5003;43523;53.022;-1.178;2023-05-31T03:08:29;6;6;
57289;PMS5003;43523;53.022;-1.178;2023-05-31T03:09:31;7;6;
57289;PMS5003;43523;53.022;-1.178;2023-05-31T03:10:34;10;5;
57289;PMS5003;43523;53.022;-1.178;2023-05-31T03:11:36;8;5;
57289;PMS5003;43523;53.022;-1.178;2023-05-31T03:12:39;8;7;
57289;PMS5003;43523;53.022;-1.178;2023-05-31T03:13:41;13;10;
57289;PMS5003;43523;53.022;-1.178;2023-05-31T03:14:44;9;8;
57289;PMS5003;43523;53.022;-1.178;2023-05-31T03:15:46;7;6;
57289;PMS5003;43523;53.022;-1.178;2023-05-31T03:16:48;11;9;
57289;PMS5003;43523;53.022;-1.178;2023-05-31T03:17:51;9;7;
57289;PMS5003;43523;53.022;-1.178;2023-05-31T03:18:53;9;9;
57289;PMS5003;43523;53.022;-1.178;2023-05-31T03:19:55;13;10;
57289;PMS5003;43523;53.022;-1.178;2023-05-31T03:20:58;10;7;
57289;PMS5003;43523;53.022;-1.178;2023-05-31T03:22:00;12;9;
57289;PMS5003;43523;53.022;-1.178;2023-05-31T03:23:02;12;10;
57289;PMS5003;43523;53.022;-1.178;2023-05-31T03:24:06;10;10;
57289;PMS5003;43523;53.022;-1.178;2023-05-31T03:25:09;15;11;
57289;PMS5003;43523;53.022;-1.178;2023-05-31T03:26:11;13;10;
57289;PMS5003;43523;53.022;-1.178;2023-05-31T03:27:13;12;11;
57289;PMS5003;43523;53.022;-1.178;2023-05-31T03:28:16;17;12;
57289;PMS5003;43523;53.022;-1.178;2023-05-31T03:29:19;15;12;
57289;PMS5003;43523;53.022;-1.178;2023-05-31T03:30:21;17;15;
57289;PMS5003;43523;53.022;-1.178;2023-05-31T03:31:23;12;12;
57289;PMS5003;43523;53.022;-1.178;2023-05-31T03:32:25;14;12;
57289;PMS5003;43523;53.022;-1.178;2023-05-31T03:33:27;15;14;
57289;PMS5003;43523;53.022;-1.178;2023-05-31T03:34:29;14;14;
57289;PMS5003;43523;53.022;-1.178;2023-05-31T03:35:32;19;18;
57289;PMS5003;43523;53.022;-1.178;2023-05-31T03:36:34;13;13;
57289;PMS5003;43523;53.022;-1.178;2023-05-31T03:37:36;13;10;
57289;PMS5003;43523;53.022;-1.178;2023-05-31T03:38:38;13;12;
57289;PMS5003;43523;53.022;-1.178;2023-05-31T03:39:40;20;18;
57289;PMS5003;43523;53.022;-1.178;2023-05-31T03:40:43;17;15;
57289;PMS5003;43523;53.022;-1.178;2023-05-31T03:41:45;27;18;
57289;PMS5003;43523;53.022;-1.178;2023-05-31T03:42:47;25;20;
57289;PMS5003;43523;53.022;-1.178;2023-05-31T03:43:50;18;18;
57289;PMS5003;43523;53.022;-1.178;2023-05-31T03:44:52;18;13;
57289;PMS5003;43523;53.022;-1.178;2023-05-31T03:45:55;16;13;
57289;PMS5003;43523;53.022;-1.178;2023-05-31T03:46:58;13;11;
57289;PMS5003;43523;53.022;-1.178;2023-05-31T03:48:01;15;10;
57289;PMS5003;43523;53.022;-1.178;2023-05-31T03:49:04;15;12;
57289;PMS5003;43523;53.022;-1.178;2023-05-31T03:50:06;13;10;
57289;PMS5003;43523;53.022;-1.178;2023-05-31T03:51:09;10;8;
57289;PMS5003;43523;53.022;-1.178;2023-05-31T03:52:11;18;15;
57289;PMS5003;43523;53.022;-1.178;2023-05-31T03:53:14;19;16;
57289;PMS5003;43523;53.022;-1.178;2023-05-31T03:54:16;16;12;
57289;PMS5003;43523;53.022;-1.178;2023-05-31T03:55:18;8;7;
57289;PMS5003;43523;53.022;-1.178;2023-05-31T03:56:21;10;9;
57289;PMS5003;43523;53.022;-1.178;2023-05-31T03:57:23;11;10;
57289;PMS5003;43523;53.022;-1.178;2023-05-31T03:58:25;12;7;
57289;PMS5003;43523;53.022;-1.178;2023-05-31T03:59:27;13;10;
57289;PMS5003;43523;53.022;-1.178;2023-05-31T04:00:30;10;9;
57289;PMS5003;43523;53.022;-1.178;2023-05-31T04:01:32;10;8;
57289;PMS5003;43523;53.022;-1.178;2023-05-31T04:02:35;10;9;
57289;PMS5003;43523;53.022;-1.178;2023-05-31T04:03:37;9;8;
57289;PMS5003;43523;53.022;-1.178;2023-05-31T04:04:39;14;11;
57289;PMS5003;43523;53.022;-1.178;2023-05-31T04:05:42;12;8;
57289;PMS5003;43523;53.022;-1.178;2023-05-31T04:06:44;12;12;
57289;PMS5003;43523;53.022;-1.178;2023-05-31T04:07:47;15;12;
57289;PMS5003;43523;53.022;-1.178;2023-05-31T04:08:49;12;8;
57289;PMS5003;43523;53.022;-1.178;2023-05-31T04:09:51;9;8;
57289;PMS5003;43523;53.022;-1.178;2023-05-31T04:10:54;14;10;
57289;PMS5003;43523;53.022;-1.178;2023-05-31T04:11:56;10;8;
57289;PMS5003;43523;53.022;-1.178;2023-05-31T04:12:59;7;7;
57289;PMS5003;43523;53.022;-1.178;2023-05-31T04:14:01;12;10;
57289;PMS5003;43523;53.022;-1.178;2023-05-31T04:15:04;7;7;
57289;PMS5003;43523;53.022;-1.178;2023-05-31T04:16:07;11;9;
57289;PMS5003;43523;53.022;-1.178;2023-05-31T04:17:09;9;9;
57289;PMS5003;43523;53.022;-1.178;2023-05-31T04:18:12;11;9;
57289;PMS5003;43523;53.022;-1.178;2023-05-31T04:19:14;11;8;
57289;PMS5003;43523;53.022;-1.178;2023-05-31T04:20:16;10;8;
57289;PMS5003;43523;53.022;-1.178;2023-05-31T04:21:19;7;7;
57289;PMS5003;43523;53.022;-1.178;2023-05-31T04:22:21;11;8;
57289;PMS5003;43523;53.022;-1.178;2023-05-31T04:23:23;10;6;
57289;PMS5003;43523;53.022;-1.178;2023-05-31T04:24:26;11;8;
57289;PMS5003;43523;53.022;-1.178;2023-05-31T04:25:29;5;5;
57289;PMS5003;43523;53.022;-1.178;2023-05-31T04:26:31;7;6;
57289;PMS5003;43523;53.022;-1.178;2023-05-31T04:27:33;8;4;
57289;PMS5003;43523;53.022;-1.178;2023-05-31T04:28:36;10;7;
57289;PMS5003;43523;53.022;-1.178;2023-05-31T04:29:39;6;6;
57289;PMS5003;43523;53.022;-1.178;2023-05-31T04:30:41;6;6;
57289;PMS5003;43523;53.022;-1.178;2023-05-31T04:31:44;5;3;
57289;PMS5003;43523;53.022;-1.178;2023-05-31T04:32:46;7;5;
57289;PMS5003;43523;53.022;-1.178;2023-05-31T04:33:49;9;7;
57289;PMS5003;43523;53.022;-1.178;2023-05-31T04:34:51;7;6;
57289;PMS5003;43523;53.022;-1.178;2023-05-31T04:35:53;6;5;
57289;PMS5003;43523;53.022;-1.178;2023-05-31T04:36:56;4;4;
57289;PMS5003;43523;53.022;-1.178;2023-05-31T04:37:58;6;5;
57289;PMS5003;43523;53.022;-1.178;2023-05-31T04:39:01;4;4;
57289;PMS5003;43523;53.022;-1.178;2023-05-31T04:40:05;4;3;
57289;PMS5003;43523;53.022;-1.178;2023-05-31T04:41:08;7;5;
57289;PMS5003;43523;53.022;-1.178;2023-05-31T04:42:11;5;5;
57289;PMS5003;43523;53.022;-1.178;2023-05-31T04:43:13;9;5;
57289;PMS5003;43523;53.022;-1.178;2023-05-31T04:44:16;3;3;
57289;PMS5003;43523;53.022;-1.178;2023-05-31T04:45:18;5;5;
57289;PMS5003;43523;53.022;-1.178;2023-05-31T04:46:20;6;6;
57289;PMS5003;43523;53.022;-1.178;2023-05-31T04:47:23;6;6;
57289;PMS5003;43523;53.022;-1.178;2023-05-31T04:48:25;8;6;
57289;PMS5003;43523;53.022;-1.178;2023-05-31T04:49:28;6;5;
57289;PMS5003;43523;53.022;-1.178;2023-05-31T04:50:31;7;6;
57289;PMS5003;43523;53.022;-1.178;2023-05-31T04:51:33;6;6;
57289;PMS5003;43523;53.022;-1.178;2023-05-31T04:52:35;7;6;
57289;PMS5003;43523;53.022;-1.178;2023-05-31T04:53:38;6;6;
57289;PMS5003;43523;53.022;-1.178;2023-05-31T04:54:40;9;9;
57289;PMS5003;43523;53.022;-1.178;2023-05-31T04:55:42;9;8;
57289;PMS5003;43523;53.022;-1.178;2023-05-31T04:56:44;7;5;
57289;PMS5003;43523;53.022;-1.178;2023-05-31T04:57:47;4;3;
57289;PMS5003;43523;53.022;-1.178;2023-05-31T04:58:49;9;8;
57289;PMS5003;43523;53.022;-1.178;2023-05-31T04:59:52;8;5;
57289;PMS5003;43523;53.022;-1.178;2023-05-31T05:00:54;6;4;
57289;PMS5003;43523;53.022;-1.178;2023-05-31T05:01:57;7;5;
57289;PMS5003;43523;53.022;-1.178;2023-05-31T05:02:59;6;6;
57289;PMS5003;43523;53.022;-1.178;2023-05-31T05:04:02;6;5;
57289;PMS5003;43523;53.022;-1.178;2023-05-31T05:05:04;10;5;
57289;PMS5003;43523;53.022;-1.178;2023-05-31T05:06:11;6;5;
57289;PMS5003;43523;53.022;-1.178;2023-05-31T05:07:15;6;5;
57289;PMS5003;43523;53.022;-1.178;2023-05-31T05:08:18;6;6;
57289;PMS5003;43523;53.022;-1.178;2023-05-31T05:09:20;8;8;
57289;PMS5003;43523;53.022;-1.178;2023-05-31T05:10:23;11;7;
57289;PMS5003;43523;53.022;-1.178;2023-05-31T05:11:26;8;6;
57289;PMS5003;43523;53.022;-1.178;2023-05-31T05:12:28;6;4;
57289;PMS5003;43523;53.022;-1.178;2023-05-31T05:13:30;5;5;
57289;PMS5003;43523;53.022;-1.178;2023-05-31T05:14:33;8;7;
57289;PMS5003;43523;53.022;-1.178;2023-05-31T05:15:35;6;4;
57289;PMS5003;43523;53.022;-1.178;2023-05-31T05:16:38;4;4;
57289;PMS5003;43523;53.022;-1.178;2023-05-31T05:17:40;6;5;
57289;PMS5003;43523;53.022;-1.178;2023-05-31T05:18:43;6;6;
57289;PMS5003;43523;53.022;-1.178;2023-05-31T05:19:45;3;3;
57289;PMS5003;43523;53.022;-1.178;2023-05-31T05:20:48;8;6;
57289;PMS5003;43523;53.022;-1.178;2023-05-31T05:21:50;7;7;
57289;PMS5003;43523;53.022;-1.178;2023-05-31T05:22:52;7;5;
57289;PMS5003;43523;53.022;-1.178;2023-05-31T05:23:55;4;4;
57289;PMS5003;43523;53.022;-1.178;2023-05-31T05:24:57;6;4;
57289;PMS5003;43523;53.022;-1.178;2023-05-31T05:26:00;8;6;
57289;PMS5003;43523;53.022;-1.178;2023-05-31T05:27:02;5;4;
57289;PMS5003;43523;53.022;-1.178;2023-05-31T05:28:05;6;3;
57289;PMS5003;43523;53.022;-1.178;2023-05-31T05:29:07;5;4;
57289;PMS5003;43523;53.022;-1.178;2023-05-31T05:30:10;6;4;
57289;PMS5003;43523;53.022;-1.178;2023-05-31T05:31:13;9;6;
57289;PMS5003;43523;53.022;-1.178;2023-05-31T05:32:15;6;3;
57289;PMS5003;43523;53.022;-1.178;2023-05-31T05:33:18;7;7;
57289;PMS5003;43523;53.022;-1.178;2023-05-31T05:34:20;8;6;
57289;PMS5003;43523;53.022;-1.178;2023-05-31T05:35:22;8;7;
57289;PMS5003;43523;53.022;-1.178;2023-05-31T05:36:24;5;5;
57289;PMS5003;43523;53.022;-1.178;2023-05-31T05:37:27;5;5;
57289;PMS5003;43523;53.022;-1.178;2023-05-31T05:38:29;4;4;
57289;PMS5003;43523;53.022;-1.178;2023-05-31T05:39:32;3;3;
57289;PMS5003;43523;53.022;-1.178;2023-05-31T05:40:34;4;4;
57289;PMS5003;43523;53.022;-1.178;2023-05-31T05:41:36;7;6;
57289;PMS5003;43523;53.022;-1.178;2023-05-31T05:42:39;4;4;
57289;PMS5003;43523;53.022;-1.178;2023-05-31T05:43:41;6;6;
57289;PMS5003;43523;53.022;-1.178;2023-05-31T05:44:44;6;4;
57289;PMS5003;43523;53.022;-1.178;2023-05-31T05:45:46;5;3;
57289;PMS5003;43523;53.022;-1.178;2023-05-31T05:46:49;6;6;
57289;PMS5003;43523;53.022;-1.178;2023-05-31T05:47:51;4;4;
57289;PMS5003;43523;53.022;-1.178;2023-05-31T05:48:54;7;6;
57289;PMS5003;43523;53.022;-1.178;2023-05-31T05:49:57;6;6;
57289;PMS5003;43523;53.022;-1.178;2023-05-31T05:51:00;9;8;
57289;PMS5003;43523;53.022;-1.178;2023-05-31T05:52:04;6;6;
57289;PMS5003;43523;53.022;-1.178;2023-05-31T05:53:07;8;5;
57289;PMS5003;43523;53.022;-1.178;2023-05-31T05:54:09;8;6;
57289;PMS5003;43523;53.022;-1.178;2023-05-31T05:55:12;7;7;
57289;PMS5003;43523;53.022;-1.178;2023-05-31T05:56:14;9;7;
57289;PMS5003;43523;53.022;-1.178;2023-05-31T05:57:17;7;6;
57289;PMS5003;43523;53.022;-1.178;2023-05-31T05:58:19;8;8;
57289;PMS5003;43523;53.022;-1.178;2023-05-31T05:59:21;7;5;
57289;PMS5003;43523;53.022;-1.178;2023-05-31T06:00:24;8;6;
57289;PMS5003;43523;53.022;-1.178;2023-05-31T06:01:26;7;5;
57289;PMS5003;43523;53.022;-1.178;2023-05-31T06:02:29;9;6;
57289;PMS5003;43523;53.022;-1.178;2023-05-31T06:03:31;6;6;
57289;PMS5003;43523;53.022;-1.178;2023-05-31T06:04:33;6;6;
57289;PMS5003;43523;53.022;-1.178;2023-05-31T06:05:36;8;6;
57289;PMS5003;43523;53.022;-1.178;2023-05-31T06:06:38;6;6;
57289;PMS5003;43523;53.022;-1.178;2023-05-31T06:07:41;5;5;
57289;PMS5003;43523;53.022;-1.178;2023-05-31T06:08:43;6;5;
57289;PMS5003;43523;53.022;-1.178;2023-05-31T06:09:47;7;4;
57289;PMS5003;43523;53.022;-1.178;2023-05-31T06:10:50;5;5;
57289;PMS5003;43523;53.022;-1.178;2023-05-31T06:11:52;6;6;
57289;PMS5003;43523;53.022;-1.178;2023-05-31T06:12:55;4;4;
57289;PMS5003;43523;53.022;-1.178;2023-05-31T06:13:57;4;4;
57289;PMS5003;43523;53.022;-1.178;2023-05-31T06:14:59;6;6;
57289;PMS5003;43523;53.022;-1.178;2023-05-31T06:16:02;6;6;
57289;PMS5003;43523;53.022;-1.178;2023-05-31T06:17:05;8;6;
57289;PMS5003;43523;53.022;-1.178;2023-05-31T06:18:07;4;4;
57289;PMS5003;43523;53.022;-1.178;2023-05-31T06:19:10;6;3;
57289;PMS5003;43523;53.022;-1.178;2023-05-31T06:20:12;7;7;
57289;PMS5003;43523;53.022;-1.178;2023-05-31T06:21:15;6;3;
57289;PMS5003;43523;53.022;-1.178;2023-05-31T06:22:17;7;5;
57289;PMS5003;43523;53.022;-1.178;2023-05-31T06:23:20;7;7;
57289;PMS5003;43523;53.022;-1.178;2023-05-31T06:24:22;5;5;
57289;PMS5003;43523;53.022;-1.178;2023-05-31T06:25:24;7;7;
57289;PMS5003;43523;53.022;-1.178;2023-05-31T06:26:27;4;4;
57289;PMS5003;43523;53.022;-1.178;2023-05-31T06:27:29;8;7;
57289;PMS5003;43523;53.022;-1.178;2023-05-31T06:28:32;5;5;
57289;PMS5003;43523;53.022;-1.178;2023-05-31T06:29:34;6;6;
57289;PMS5003;43523;53.022;-1.178;2023-05-31T06:30:36;8;5;
57289;PMS5003;43523;53.022;-1.178;2023-05-31T06:31:39;5;5;
57289;PMS5003;43523;53.022;-1.178;2023-05-31T06:32:41;6;6;
57289;PMS5003;43523;53.022;-1.178;2023-05-31T06:33:44;9;6;
57289;PMS5003;43523;53.022;-1.178;2023-05-31T06:34:46;7;5;
57289;PMS5003;43523;53.022;-1.178;2023-05-31T06:35:49;9;8;
57289;PMS5003;43523;53.022;-1.178;2023-05-31T06:36:51;5;5;
57289;PMS5003;43523;53.022;-1.178;2023-05-31T06:37:53;10;9;
57289;PMS5003;43523;53.022;-1.178;2023-05-31T06:38:55;10;10;
57289;PMS5003;43523;53.022;-1.178;2023-05-31T06:39:58;8;8;
57289;PMS5003;43523;53.022;-1.178;2023-05-31T06:41:00;6;6;
57289;PMS5003;43523;53.022;-1.178;2023-05-31T06:42:04;9;8;
57289;PMS5003;43523;53.022;-1.178;2023-05-31T06:43:07;6;6;
57289;PMS5003;43523;53.022;-1.178;2023-05-31T06:44:09;9;8;
57289;PMS5003;43523;53.022;-1.178;2023-05-31T06:45:12;6;6;
57289;PMS5003;43523;53.022;-1.178;2023-05-31T06:46:14;7;7;
57289;PMS5003;43523;53.022;-1.178;2023-05-31T06:47:17;10;7;
57289;PMS5003;43523;53.022;-1.178;2023-05-31T06:48:20;7;5;
57289;PMS5003;43523;53.022;-1.178;2023-05-31T06:49:22;10;9;
57289;PMS5003;43523;53.022;-1.178;2023-05-31T06:50:24;7;6;
57289;PMS5003;43523;53.022;-1.178;2023-05-31T06:51:26;7;7;
57289;PMS5003;43523;53.022;-1.178;2023-05-31T06:52:29;8;5;
57289;PMS5003;43523;53.022;-1.178;2023-05-31T06:53:31;9;7;
57289;PMS5003;43523;53.022;-1.178;2023-05-31T06:54:34;6;6;
57289;PMS5003;43523;53.022;-1.178;2023-05-31T06:55:38;9;6;
57289;PMS5003;43523;53.022;-1.178;2023-05-31T06:56:40;9;8;
57289;PMS5003;43523;53.022;-1.178;2023-05-31T06:57:42;10;9;
57289;PMS5003;43523;53.022;-1.178;2023-05-31T06:58:45;6;5;
57289;PMS5003;43523;53.022;-1.178;2023-05-31T06:59:47;6;6;